Aérodrome :
LOGIN :

S'inscrire | Disclaimer

   EN    FR    IT 

 










Légende :    VFR   VFR Marginal   IFR   IFR Intensif   IFR Très Intensif
Visi : 
Plafond : 
>= 8 km
>= 3000ft
5 à 8 km
1000 à 3000 ft
1500m à 5 km
500 à 1000 ft
800 à 1500m
200 à 500 ft
< 800m
< 200 ft
Symboles :   Orages  Brouillard  Fortes neiges  Fortes précipitations  Vent > 20 kt
SIGMETs :   Divers  Orages  Givrage  Turbulence  Onde Orograph.  Cendres Volcan.







- Altitude de l'aérodrome : 7 ft
- Code IATA : VCE


LIPZ - Marco Polo Int. Venezia

DERNIER METAR :
  • 231620Z 08006KT CAVOK 15/11 Q1012 NOSIG

METARs EXPIRÉS :
  • 231550Z 10006KT CAVOK 16/12 Q1012 NOSIG
  • 231520Z 09005KT CAVOK 17/12 Q1012 NOSIG
  • 231450Z 12005KT CAVOK 17/11 Q1012 NOSIG
  • 231420Z 15004KT 120V190 CAVOK 18/10 Q1012 NOSIG
  • 231350Z 15005KT 120V180 CAVOK 17/11 Q1012 NOSIG

TAF TAF LIPZ
Valide du 23 à 12h jusqu'au 24 à 18h UTC


231100Z 2312/2418 VRB06KT CAVOK
Pas de NOTAMs connus pour ce terrain.
2 SIGMETs publiés pour la FIR Milano (LIMM) :
 
Turbulence forte
LIMM SIGMET 11 VALID 231705/231905 LIIP
LIMM MILANO FIR SEV TURB FCST WI N4614 E01005 - N4435 E01121 - N4326 E01313 - N4330 E01429 - N4429 E01319 - N4517 E01258 - N4535 E01354 - N4633 E01337 - N4706 E01209 - N4650 E01026 - N4634 E01004 - N4614 E01005 ABV FL220 MOV E NC=
Turbulence forte
LIMM SIGMET 10 VALID 231505/231705 LIIP
LIMM MILANO FIR SEV TURB FCST WI N4614 E01005 - N4435 E01121 - N4326 E01313 - N4330 E01429 - N4429 E01319 - N4517 E01258 - N4535 E01354 - N4633 E01337 - N4706 E01209 - N4650 E01026 - N4634 E01004 - N4614 E01005 ABV FL220 MOV E NC=



MET'MAP, la Météo Aéronautique d'un coup d'oeil ! - Copyright ORBIFLY Décembre 2007 - Disclaimer

ORBIFLY MET'MAP TEAM :

Programmation & Développement : Alexandra Zaïnal
Conception & Développement : Baudouin d'Aumeries
Co-Programmation & Développement : Marc-Olivier Méhu
Soutien technique & logistique : Manuel Goepfert

Contact : metmap@orbifly.com




SOURCES & CREDITS :

   NOAA